sensor_id;sensor_type;location;lat;lon;timestamp;pressure;altitude;pressure_sealevel;temperature;humidity
73952;BME280;62304;47.662;18.324;2022-08-01T00:02:23;100130.41;;;15.21;78.15
73952;BME280;62304;47.662;18.324;2022-08-01T00:05:27;100127.47;;;15.49;77.56
73952;BME280;62304;47.662;18.324;2022-08-01T00:08:30;100129.09;;;15.50;77.05
73952;BME280;62304;47.662;18.324;2022-08-01T00:11:33;100127.12;;;15.44;76.72
73952;BME280;62304;47.662;18.324;2022-08-01T00:14:36;100128.03;;;15.13;77.27
73952;BME280;62304;47.662;18.324;2022-08-01T00:17:40;100125.31;;;14.99;77.95
73952;BME280;62304;47.662;18.324;2022-08-01T00:20:44;100122.56;;;14.88;79.40
73952;BME280;62304;47.662;18.324;2022-08-01T00:23:47;100118.59;;;14.82;80.21
73952;BME280;62304;47.662;18.324;2022-08-01T00:26:50;100128.13;;;14.99;79.34
73952;BME280;62304;47.662;18.324;2022-08-01T00:29:53;100127.66;;;15.11;78.65
73952;BME280;62304;47.662;18.324;2022-08-01T00:33:15;100126.09;;;15.06;78.55
73952;BME280;62304;47.662;18.324;2022-08-01T00:36:18;100127.31;;;14.98;78.84
73952;BME280;62304;47.662;18.324;2022-08-01T00:39:21;100125.69;;;15.01;79.26
73952;BME280;62304;47.662;18.324;2022-08-01T00:42:24;100130.91;;;14.99;79.05
73952;BME280;62304;47.662;18.324;2022-08-01T00:45:27;100128.09;;;15.02;79.37
73952;BME280;62304;47.662;18.324;2022-08-01T00:48:30;100128.97;;;14.85;79.45
73952;BME280;62304;47.662;18.324;2022-08-01T00:51:32;100121.38;;;14.89;79.25
73952;BME280;62304;47.662;18.324;2022-08-01T00:54:38;100138.87;;;14.93;79.19
73952;BME280;62304;47.662;18.324;2022-08-01T00:57:41;100136.50;;;14.88;79.77
73952;BME280;62304;47.662;18.324;2022-08-01T01:01:05;100134.19;;;14.66;80.36
73952;BME280;62304;47.662;18.324;2022-08-01T01:04:10;100129.81;;;14.54;80.95
73952;BME280;62304;47.662;18.324;2022-08-01T01:07:28;100126.19;;;14.78;79.96
73952;BME280;62304;47.662;18.324;2022-08-01T01:10:46;100133.38;;;14.65;81.48
73952;BME280;62304;47.662;18.324;2022-08-01T01:13:55;100119.78;;;14.85;80.39
73952;BME280;62304;47.662;18.324;2022-08-01T01:17:03;100118.94;;;14.98;80.04
73952;BME280;62304;47.662;18.324;2022-08-01T01:20:12;100114.16;;;14.88;79.84
73952;BME280;62304;47.662;18.324;2022-08-01T01:23:29;100116.56;;;14.93;79.80
73952;BME280;62304;47.662;18.324;2022-08-01T01:27:06;100117.72;;;14.99;79.34
73952;BME280;62304;47.662;18.324;2022-08-01T01:30:11;100116.19;;;14.84;80.08
73952;BME280;62304;47.662;18.324;2022-08-01T01:33:16;100120.19;;;14.76;80.56
73952;BME280;62304;47.662;18.324;2022-08-01T01:36:20;100122.19;;;14.72;80.59
73952;BME280;62304;47.662;18.324;2022-08-01T01:39:25;100121.81;;;14.74;80.07
73952;BME280;62304;47.662;18.324;2022-08-01T01:42:30;100115.84;;;14.61;79.76
73952;BME280;62304;47.662;18.324;2022-08-01T01:45:35;100119.06;;;14.49;80.17
73952;BME280;62304;47.662;18.324;2022-08-01T01:48:40;100110.31;;;14.44;80.79
73952;BME280;62304;47.662;18.324;2022-08-01T01:51:47;100117.50;;;14.41;81.42
73952;BME280;62304;47.662;18.324;2022-08-01T01:55:05;100118.69;;;14.51;81.26
73952;BME280;62304;47.662;18.324;2022-08-01T01:58:12;100108.72;;;14.46;81.39
73952;BME280;62304;47.662;18.324;2022-08-01T02:01:15;100114.72;;;14.38;81.85
73952;BME280;62304;47.662;18.324;2022-08-01T02:04:42;100118.28;;;14.52;80.50
73952;BME280;62304;47.662;18.324;2022-08-01T02:07:46;100116.69;;;14.44;81.01
73952;BME280;62304;47.662;18.324;2022-08-01T02:10:52;100115.50;;;14.35;80.69
73952;BME280;62304;47.662;18.324;2022-08-01T02:14:15;100111.53;;;14.32;81.12
73952;BME280;62304;47.662;18.324;2022-08-01T02:17:20;100100.75;;;14.31;82.01
73952;BME280;62304;47.662;18.324;2022-08-01T02:20:27;100107.56;;;14.37;81.29
73952;BME280;62304;47.662;18.324;2022-08-01T02:23:32;100117.50;;;14.45;81.18
73952;BME280;62304;47.662;18.324;2022-08-01T02:26:42;100110.72;;;14.56;81.03
73952;BME280;62304;47.662;18.324;2022-08-01T02:29:48;100110.28;;;14.54;80.28
73952;BME280;62304;47.662;18.324;2022-08-01T02:33:03;100106.34;;;14.27;81.13
73952;BME280;62304;47.662;18.324;2022-08-01T02:36:18;100111.91;;;14.03;82.78
73952;BME280;62304;47.662;18.324;2022-08-01T02:39:33;100118.69;;;14.02;82.92
73952;BME280;62304;47.662;18.324;2022-08-01T02:42:43;100101.59;;;14.24;82.42
73952;BME280;62304;47.662;18.324;2022-08-01T02:45:52;100109.50;;;14.43;81.07
73952;BME280;62304;47.662;18.324;2022-08-01T02:48:59;100105.53;;;14.37;81.74
73952;BME280;62304;47.662;18.324;2022-08-01T02:52:12;100099.19;;;14.30;81.50
73952;BME280;62304;47.662;18.324;2022-08-01T02:55:18;100100.78;;;14.38;80.86
73952;BME280;62304;47.662;18.324;2022-08-01T02:58:22;100105.94;;;14.36;81.60
73952;BME280;62304;47.662;18.324;2022-08-01T03:01:34;100109.50;;;14.43;81.14
73952;BME280;62304;47.662;18.324;2022-08-01T03:04:38;100115.91;;;14.44;81.45
73952;BME280;62304;47.662;18.324;2022-08-01T03:07:43;100106.75;;;14.36;80.99
73952;BME280;62304;47.662;18.324;2022-08-01T03:10:51;100112.72;;;14.38;81.34
73952;BME280;62304;47.662;18.324;2022-08-01T03:14:04;100116.69;;;14.44;80.88
73952;BME280;62304;47.662;18.324;2022-08-01T03:17:08;100109.50;;;14.43;81.12
73952;BME280;62304;47.662;18.324;2022-08-01T03:20:16;100107.16;;;14.28;81.16
73952;BME280;62304;47.662;18.324;2022-08-01T03:23:21;100108.34;;;13.92;82.62
73952;BME280;62304;47.662;18.324;2022-08-01T03:26:39;100106.34;;;13.92;82.55
73952;BME280;62304;47.662;18.324;2022-08-01T03:29:44;100107.12;;;14.14;81.98
73952;BME280;62304;47.662;18.324;2022-08-01T03:32:48;100096.41;;;14.12;82.07
73952;BME280;62304;47.662;18.324;2022-08-01T03:35:54;100108.75;;;14.01;82.84
73952;BME280;62304;47.662;18.324;2022-08-01T03:39:00;100100.34;;;14.11;81.83
73952;BME280;62304;47.662;18.324;2022-08-01T03:42:09;100112.34;;;14.01;82.52
73952;BME280;62304;47.662;18.324;2022-08-01T03:45:31;100111.53;;;14.01;82.50
73952;BME280;62304;47.662;18.324;2022-08-01T03:48:41;100110.75;;;13.79;83.37
73952;BME280;62304;47.662;18.324;2022-08-01T03:51:49;100111.13;;;13.78;83.90
73952;BME280;62304;47.662;18.324;2022-08-01T03:54:56;100115.09;;;13.91;83.75
73952;BME280;62304;47.662;18.324;2022-08-01T03:58:02;100115.91;;;13.98;83.79
73952;BME280;62304;47.662;18.324;2022-08-01T04:01:11;100117.88;;;13.94;83.76
73952;BME280;62304;47.662;18.324;2022-08-01T04:04:17;100125.06;;;13.95;84.36
73952;BME280;62304;47.662;18.324;2022-08-01T04:07:30;100122.28;;;14.02;84.45
73952;BME280;62304;47.662;18.324;2022-08-01T04:10:34;100121.50;;;14.12;83.93
73952;BME280;62304;47.662;18.324;2022-08-01T04:13:37;100121.50;;;14.26;83.75
73952;BME280;62304;47.662;18.324;2022-08-01T04:16:40;100117.50;;;14.27;84.29
73952;BME280;62304;47.662;18.324;2022-08-01T04:19:43;100119.53;;;14.23;84.91
73952;BME280;62304;47.662;18.324;2022-08-01T04:22:46;100116.69;;;14.37;85.53
73952;BME280;62304;47.662;18.324;2022-08-01T04:25:50;100119.06;;;14.49;84.60
73952;BME280;62304;47.662;18.324;2022-08-01T04:28:54;100120.62;;;14.68;84.38
73952;BME280;62304;47.662;18.324;2022-08-01T04:31:58;100121.38;;;14.89;82.55
73952;BME280;62304;47.662;18.324;2022-08-01T04:35:07;100118.09;;;15.08;82.29
73952;BME280;62304;47.662;18.324;2022-08-01T04:38:33;100117.22;;;15.22;81.32
73952;BME280;62304;47.662;18.324;2022-08-01T04:41:37;100121.97;;;15.35;81.47
73952;BME280;62304;47.662;18.324;2022-08-01T04:44:41;100107.50;;;15.51;81.57
73952;BME280;62304;47.662;18.324;2022-08-01T04:47:45;100112.63;;;15.63;80.90
73952;BME280;62304;47.662;18.324;2022-08-01T04:50:50;100114.56;;;15.73;80.76
73952;BME280;62304;47.662;18.324;2022-08-01T04:53:54;100132.06;;;15.84;80.20
73952;BME280;62304;47.662;18.324;2022-08-01T04:56:57;100123.59;;;15.94;79.68
73952;BME280;62304;47.662;18.324;2022-08-01T05:00:03;100123.09;;;16.06;79.34
73952;BME280;62304;47.662;18.324;2022-08-01T05:03:06;100118.22;;;16.17;78.70
73952;BME280;62304;47.662;18.324;2022-08-01T05:06:09;100120.44;;;16.33;78.68
73952;BME280;62304;47.662;18.324;2022-08-01T05:09:12;100124.31;;;16.53;77.98
73952;BME280;62304;47.662;18.324;2022-08-01T05:12:15;100126.19;;;16.63;77.21
73952;BME280;62304;47.662;18.324;2022-08-01T05:15:18;100121.19;;;16.81;76.37
73952;BME280;62304;47.662;18.324;2022-08-01T05:18:21;100120.94;;;17.02;76.12
73952;BME280;62304;47.662;18.324;2022-08-01T05:21:30;100121.94;;;17.18;75.50
73952;BME280;62304;47.662;18.324;2022-08-01T05:24:34;100122.34;;;17.50;74.72
73952;BME280;62304;47.662;18.324;2022-08-01T05:27:37;100119.31;;;17.91;73.24
73952;BME280;62304;47.662;18.324;2022-08-01T05:30:44;100119.28;;;18.17;72.40
73952;BME280;62304;47.662;18.324;2022-08-01T05:33:46;100124.69;;;18.54;71.31
73952;BME280;62304;47.662;18.324;2022-08-01T05:36:49;100114.47;;;18.83;70.47
73952;BME280;62304;47.662;18.324;2022-08-01T05:39:58;100122.53;;;19.24;70.62
73952;BME280;62304;47.662;18.324;2022-08-01T05:43:01;100118.31;;;19.67;68.09
73952;BME280;62304;47.662;18.324;2022-08-01T05:46:04;100115.22;;;19.97;66.02
73952;BME280;62304;47.662;18.324;2022-08-01T05:49:07;100118.16;;;20.26;65.79
73952;BME280;62304;47.662;18.324;2022-08-01T05:52:11;100117.59;;;20.30;65.05
73952;BME280;62304;47.662;18.324;2022-08-01T05:55:14;100122.59;;;20.55;65.39
73952;BME280;62304;47.662;18.324;2022-08-01T05:58:16;100114.97;;;21.00;64.02
73952;BME280;62304;47.662;18.324;2022-08-01T06:01:20;100113.16;;;21.59;62.59
73952;BME280;62304;47.662;18.324;2022-08-01T06:04:24;100115.13;;;21.75;62.33
73952;BME280;62304;47.662;18.324;2022-08-01T06:07:28;100122.19;;;21.67;60.71
73952;BME280;62304;47.662;18.324;2022-08-01T06:10:32;100119.75;;;21.94;60.72
73952;BME280;62304;47.662;18.324;2022-08-01T06:13:35;100121.41;;;22.29;59.96
73952;BME280;62304;47.662;18.324;2022-08-01T06:16:51;100125.81;;;22.17;58.69
73952;BME280;62304;47.662;18.324;2022-08-01T06:19:53;100121.09;;;22.27;58.77
73952;BME280;62304;47.662;18.324;2022-08-01T06:22:57;100117.75;;;23.09;55.09
73952;BME280;62304;47.662;18.324;2022-08-01T06:26:02;100118.53;;;23.22;56.51
73952;BME280;62304;47.662;18.324;2022-08-01T06:29:05;100127.03;;;23.22;56.26
73952;BME280;62304;47.662;18.324;2022-08-01T06:32:11;100130.09;;;23.15;56.99
73952;BME280;62304;47.662;18.324;2022-08-01T06:35:28;100126.09;;;23.25;57.25
73952;BME280;62304;47.662;18.324;2022-08-01T06:38:32;100118.41;;;23.56;55.22
73952;BME280;62304;47.662;18.324;2022-08-01T06:41:35;100126.47;;;23.57;55.85
73952;BME280;62304;47.662;18.324;2022-08-01T06:44:37;100126.16;;;23.12;54.86
73952;BME280;62304;47.662;18.324;2022-08-01T06:47:43;100120.41;;;23.25;56.46
73952;BME280;62304;47.662;18.324;2022-08-01T06:50:51;100127.16;;;23.18;56.55
73952;BME280;62304;47.662;18.324;2022-08-01T06:54:10;100119.63;;;23.46;54.78
73952;BME280;62304;47.662;18.324;2022-08-01T06:57:13;100112.59;;;23.50;55.45
73952;BME280;62304;47.662;18.324;2022-08-01T07:00:17;100115.88;;;23.27;54.44
73952;BME280;62304;47.662;18.324;2022-08-01T07:03:24;100109.75;;;23.29;55.01
73952;BME280;62304;47.662;18.324;2022-08-01T07:06:32;100117.22;;;23.66;55.17
73952;BME280;62304;47.662;18.324;2022-08-01T07:09:35;100108.13;;;24.10;54.55
73952;BME280;62304;47.662;18.324;2022-08-01T07:12:38;100110.28;;;24.37;53.71
73952;BME280;62304;47.662;18.324;2022-08-01T07:15:41;100114.38;;;24.45;53.14
73952;BME280;62304;47.662;18.324;2022-08-01T07:18:44;100110.97;;;24.68;53.48
73952;BME280;62304;47.662;18.324;2022-08-01T07:21:48;100115.69;;;25.34;52.42
73952;BME280;62304;47.662;18.324;2022-08-01T07:24:52;100102.72;;;25.51;52.13
73952;BME280;62304;47.662;18.324;2022-08-01T07:27:55;100113.41;;;26.15;50.48
73952;BME280;62304;47.662;18.324;2022-08-01T07:30:59;100113.81;;;26.55;49.02
73952;BME280;62304;47.662;18.324;2022-08-01T07:34:04;100109.41;;;26.78;48.68
73952;BME280;62304;47.662;18.324;2022-08-01T07:37:07;100109.72;;;26.47;48.41
73952;BME280;62304;47.662;18.324;2022-08-01T07:40:10;100105.91;;;26.27;48.00
73952;BME280;62304;47.662;18.324;2022-08-01T07:43:14;100103.44;;;26.11;49.27
73952;BME280;62304;47.662;18.324;2022-08-01T07:46:17;100111.53;;;26.03;48.83
73952;BME280;62304;47.662;18.324;2022-08-01T07:49:20;100113.53;;;26.44;47.67
73952;BME280;62304;47.662;18.324;2022-08-01T07:52:24;100114.91;;;26.58;47.81
73952;BME280;62304;47.662;18.324;2022-08-01T07:55:27;100121.34;;;26.35;48.20
73952;BME280;62304;47.662;18.324;2022-08-01T07:58:30;100121.38;;;26.26;48.68
73952;BME280;62304;47.662;18.324;2022-08-01T08:01:33;100117.94;;;26.54;48.07
73952;BME280;62304;47.662;18.324;2022-08-01T08:04:36;100120.72;;;26.31;48.48
73952;BME280;62304;47.662;18.324;2022-08-01T08:07:40;100121.69;;;26.28;49.24
73952;BME280;62304;47.662;18.324;2022-08-01T08:10:43;100130.94;;;26.14;48.48
73952;BME280;62304;47.662;18.324;2022-08-01T08:13:46;100121.09;;;26.24;48.38
73952;BME280;62304;47.662;18.324;2022-08-01T08:16:49;100132.91;;;26.31;48.76
73952;BME280;62304;47.662;18.324;2022-08-01T08:19:52;100127.94;;;26.41;48.55
73952;BME280;62304;47.662;18.324;2022-08-01T08:22:56;100132.22;;;26.36;49.22
73952;BME280;62304;47.662;18.324;2022-08-01T08:26:00;100133.72;;;25.81;50.63
73952;BME280;62304;47.662;18.324;2022-08-01T08:29:04;100142.34;;;25.45;50.93
73952;BME280;62304;47.662;18.324;2022-08-01T08:32:07;100130.47;;;25.65;50.92
73952;BME280;62304;47.662;18.324;2022-08-01T08:35:10;100138.28;;;25.37;51.44
73952;BME280;62304;47.662;18.324;2022-08-01T08:38:21;100139.19;;;25.43;51.66
73952;BME280;62304;47.662;18.324;2022-08-01T08:41:35;100144.97;;;26.17;51.20
73952;BME280;62304;47.662;18.324;2022-08-01T08:44:42;100145.13;;;26.79;48.49
73952;BME280;62304;47.662;18.324;2022-08-01T08:47:47;100151.56;;;26.79;48.52
73952;BME280;62304;47.662;18.324;2022-08-01T08:50:50;100146.84;;;27.00;47.58
73952;BME280;62304;47.662;18.324;2022-08-01T08:53:55;100140.34;;;27.23;47.44
73952;BME280;62304;47.662;18.324;2022-08-01T08:57:00;100138.66;;;26.93;46.92
73952;BME280;62304;47.662;18.324;2022-08-01T09:00:03;100134.97;;;27.01;46.84
73952;BME280;62304;47.662;18.324;2022-08-01T09:03:06;100139.22;;;26.82;48.57
73952;BME280;62304;47.662;18.324;2022-08-01T09:06:11;100125.66;;;26.77;48.31
73952;BME280;62304;47.662;18.324;2022-08-01T09:09:14;100128.13;;;26.84;48.08
73952;BME280;62304;47.662;18.324;2022-08-01T09:12:18;100133.88;;;27.37;46.68
73952;BME280;62304;47.662;18.324;2022-08-01T09:15:47;100133.91;;;27.66;47.81
73952;BME280;62304;47.662;18.324;2022-08-01T09:18:50;100134.06;;;27.48;46.83
73952;BME280;62304;47.662;18.324;2022-08-01T09:22:01;100131.94;;;27.72;47.46
73952;BME280;62304;47.662;18.324;2022-08-01T09:25:06;100137.25;;;27.64;47.37
73952;BME280;62304;47.662;18.324;2022-08-01T09:28:08;100128.81;;;28.19;45.94
73952;BME280;62304;47.662;18.324;2022-08-01T09:31:16;100126.84;;;28.25;45.98
73952;BME280;62304;47.662;18.324;2022-08-01T09:34:28;100127.25;;;28.18;45.88
73952;BME280;62304;47.662;18.324;2022-08-01T09:37:32;100127.16;;;28.27;45.86
73952;BME280;62304;47.662;18.324;2022-08-01T09:40:59;100132.72;;;28.36;44.76
73952;BME280;62304;47.662;18.324;2022-08-01T09:44:04;100124.28;;;28.81;43.47
73952;BME280;62304;47.662;18.324;2022-08-01T09:47:07;100124.47;;;29.63;41.35
73952;BME280;62304;47.662;18.324;2022-08-01T09:50:11;100127.44;;;29.49;40.88
73952;BME280;62304;47.662;18.324;2022-08-01T09:53:15;100127.78;;;30.13;40.02
73952;BME280;62304;47.662;18.324;2022-08-01T09:56:40;100123.13;;;30.57;39.11
73952;BME280;62304;47.662;18.324;2022-08-01T09:59:47;100127.69;;;29.71;36.85
73952;BME280;62304;47.662;18.324;2022-08-01T10:03:25;100130.56;;;29.76;39.15
73952;BME280;62304;47.662;18.324;2022-08-01T10:06:28;100130.97;;;29.89;36.99
73952;BME280;62304;47.662;18.324;2022-08-01T10:09:34;100125.19;;;30.15;37.95
73952;BME280;62304;47.662;18.324;2022-08-01T10:12:43;100124.25;;;30.29;37.26
73952;BME280;62304;47.662;18.324;2022-08-01T10:15:47;100133.75;;;29.84;37.08
73952;BME280;62304;47.662;18.324;2022-08-01T10:18:50;100126.59;;;29.99;37.12
73952;BME280;62304;47.662;18.324;2022-08-01T10:21:54;100122.75;;;30.81;35.71
73952;BME280;62304;47.662;18.324;2022-08-01T10:25:03;100132.34;;;31.47;34.94
73952;BME280;62304;47.662;18.324;2022-08-01T10:28:14;100117.03;;;32.00;33.24
73952;BME280;62304;47.662;18.324;2022-08-01T10:31:21;100113.91;;;31.87;32.09
73952;BME280;62304;47.662;18.324;2022-08-01T10:34:33;100114.69;;;32.04;33.65
73952;BME280;62304;47.662;18.324;2022-08-01T10:37:37;100118.72;;;31.15;34.37
73952;BME280;62304;47.662;18.324;2022-08-01T10:40:54;100113.00;;;31.20;33.95
73952;BME280;62304;47.662;18.324;2022-08-01T10:44:00;100108.37;;;30.70;33.89
73952;BME280;62304;47.662;18.324;2022-08-01T10:47:14;100113.47;;;30.55;35.22
73952;BME280;62304;47.662;18.324;2022-08-01T10:50:42;100110.12;;;30.62;35.71
73952;BME280;62304;47.662;18.324;2022-08-01T10:53:52;100103.72;;;30.78;34.28
73952;BME280;62304;47.662;18.324;2022-08-01T10:56:59;100106.75;;;30.58;34.50
73952;BME280;62304;47.662;18.324;2022-08-01T11:00:03;100106.31;;;30.76;33.13
73952;BME280;62304;47.662;18.324;2022-08-01T11:03:07;100093.03;;;31.92;31.60
73952;BME280;62304;47.662;18.324;2022-08-01T11:06:20;100101.41;;;31.79;31.58
73952;BME280;62304;47.662;18.324;2022-08-01T11:09:43;100101.13;;;31.99;31.02
73952;BME280;62304;47.662;18.324;2022-08-01T11:12:53;100092.75;;;32.39;30.73
73952;BME280;62304;47.662;18.324;2022-08-01T11:16:26;100086.47;;;32.41;30.50
73952;BME280;62304;47.662;18.324;2022-08-01T11:26:16;100088.88;;;34.10;26.95
73952;BME280;62304;47.662;18.324;2022-08-01T11:29:31;100072.47;;;34.53;26.72
73952;BME280;62304;47.662;18.324;2022-08-01T11:39:18;100060.44;;;34.25;25.86
73952;BME280;62304;47.662;18.324;2022-08-01T11:42:22;100065.81;;;33.86;26.72
73952;BME280;62304;47.662;18.324;2022-08-01T11:45:53;100070.69;;;34.50;26.71
73952;BME280;62304;47.662;18.324;2022-08-01T11:52:40;100055.13;;;34.58;25.85
73952;BME280;62304;47.662;18.324;2022-08-01T11:55:46;100052.41;;;34.18;26.24
73952;BME280;62304;47.662;18.324;2022-08-01T11:58:59;100049.28;;;35.06;25.10
73952;BME280;62304;47.662;18.324;2022-08-01T12:02:02;100046.44;;;34.82;25.06
73952;BME280;62304;47.662;18.324;2022-08-01T12:05:08;100047.41;;;34.90;25.68
73952;BME280;62304;47.662;18.324;2022-08-01T12:08:24;100037.44;;;34.67;25.43
73952;BME280;62304;47.662;18.324;2022-08-01T12:11:27;100038.34;;;34.99;26.28
73952;BME280;62304;47.662;18.324;2022-08-01T12:14:38;100034.44;;;35.15;26.16
73952;BME280;62304;47.662;18.324;2022-08-01T12:17:44;100039.69;;;34.98;25.92
73952;BME280;62304;47.662;18.324;2022-08-01T12:21:02;100033.97;;;35.11;24.89
73952;BME280;62304;47.662;18.324;2022-08-01T12:24:07;100030.25;;;34.98;25.52
73952;BME280;62304;47.662;18.324;2022-08-01T12:27:10;100028.53;;;34.89;25.85
73952;BME280;62304;47.662;18.324;2022-08-01T12:30:17;100029.16;;;34.82;26.43
73952;BME280;62304;47.662;18.324;2022-08-01T12:33:20;100029.94;;;34.83;25.38
73952;BME280;62304;47.662;18.324;2022-08-01T12:36:28;100024.75;;;33.85;26.51
73952;BME280;62304;47.662;18.324;2022-08-01T12:39:34;100020.06;;;34.54;25.23
73952;BME280;62304;47.662;18.324;2022-08-01T12:42:46;100014.97;;;35.03;24.91
73952;BME280;62304;47.662;18.324;2022-08-01T12:45:50;100025.22;;;34.61;25.06
73952;BME280;62304;47.662;18.324;2022-08-01T12:48:59;100020.03;;;34.36;24.97
73952;BME280;62304;47.662;18.324;2022-08-01T12:52:03;100019.13;;;35.07;24.39
73952;BME280;62304;47.662;18.324;2022-08-01T12:55:18;100018.22;;;35.31;23.84
73952;BME280;62304;47.662;18.324;2022-08-01T12:58:22;100030.31;;;35.11;24.00
73952;BME280;62304;47.662;18.324;2022-08-01T13:01:27;100021.50;;;35.22;23.97
73952;BME280;62304;47.662;18.324;2022-08-01T13:04:29;100022.81;;;33.64;25.46
73952;BME280;62304;47.662;18.324;2022-08-01T13:07:38;100020.84;;;33.13;26.47
73952;BME280;62304;47.662;18.324;2022-08-01T13:10:48;100020.94;;;33.42;26.00
73952;BME280;62304;47.662;18.324;2022-08-01T13:13:51;100020.06;;;33.12;26.72
73952;BME280;62304;47.662;18.324;2022-08-01T13:16:55;100026.81;;;32.80;27.08
73952;BME280;62304;47.662;18.324;2022-08-01T13:19:59;100017.19;;;32.66;27.85
73952;BME280;62304;47.662;18.324;2022-08-01T13:23:16;100026.22;;;32.13;28.26
73952;BME280;62304;47.662;18.324;2022-08-01T13:26:47;100014.03;;;31.80;29.17
73952;BME280;62304;47.662;18.324;2022-08-01T13:29:50;100020.28;;;31.84;29.12
73952;BME280;62304;47.662;18.324;2022-08-01T13:32:59;100016.09;;;32.75;28.08
73952;BME280;62304;47.662;18.324;2022-08-01T13:36:02;100008.84;;;33.09;27.64
73952;BME280;62304;47.662;18.324;2022-08-01T13:39:06;100017.50;;;33.44;27.32
73952;BME280;62304;47.662;18.324;2022-08-01T13:42:27;100017.03;;;33.40;27.35
73952;BME280;62304;47.662;18.324;2022-08-01T13:45:32;99998.28;;;33.57;26.52
73952;BME280;62304;47.662;18.324;2022-08-01T13:48:35;100003.75;;;33.26;28.27
73952;BME280;62304;47.662;18.324;2022-08-01T13:51:39;99999.22;;;33.71;27.56
73952;BME280;62304;47.662;18.324;2022-08-01T13:54:42;99991.47;;;33.60;27.57
73952;BME280;62304;47.662;18.324;2022-08-01T13:57:45;100004.59;;;33.21;28.68
73952;BME280;62304;47.662;18.324;2022-08-01T14:00:48;100000.66;;;33.24;27.85
73952;BME280;62304;47.662;18.324;2022-08-01T14:03:51;99997.19;;;32.44;29.15
73952;BME280;62304;47.662;18.324;2022-08-01T14:06:54;99997.25;;;32.85;28.53
73952;BME280;62304;47.662;18.324;2022-08-01T14:09:57;99996.25;;;32.77;28.71
73952;BME280;62304;47.662;18.324;2022-08-01T14:13:20;99993.03;;;32.40;29.71
73952;BME280;62304;47.662;18.324;2022-08-01T14:16:25;99988.94;;;32.81;29.07
73952;BME280;62304;47.662;18.324;2022-08-01T14:19:28;99999.19;;;33.12;28.83
73952;BME280;62304;47.662;18.324;2022-08-01T14:22:41;99999.66;;;32.70;29.61
73952;BME280;62304;47.662;18.324;2022-08-01T14:25:43;99998.91;;;32.64;29.53
73952;BME280;62304;47.662;18.324;2022-08-01T14:29:06;99994.91;;;32.15;30.23
73952;BME280;62304;47.662;18.324;2022-08-01T14:32:09;100000.13;;;32.06;30.49
73952;BME280;62304;47.662;18.324;2022-08-01T14:35:12;100008.81;;;31.73;30.78
73952;BME280;62304;47.662;18.324;2022-08-01T14:38:15;100008.31;;;31.36;31.21
73952;BME280;62304;47.662;18.324;2022-08-01T14:41:33;100026.69;;;30.80;32.19
73952;BME280;62304;47.662;18.324;2022-08-01T14:44:37;100008.41;;;30.72;32.40
73952;BME280;62304;47.662;18.324;2022-08-01T14:47:51;100008.91;;;30.12;33.82
73952;BME280;62304;47.662;18.324;2022-08-01T14:50:53;100017.00;;;29.82;34.38
73952;BME280;62304;47.662;18.324;2022-08-01T14:53:56;100017.56;;;29.86;34.60
73952;BME280;62304;47.662;18.324;2022-08-01T14:56:59;100009.34;;;30.05;34.08
73952;BME280;62304;47.662;18.324;2022-08-01T15:00:07;100018.50;;;30.09;34.33
73952;BME280;62304;47.662;18.324;2022-08-01T15:03:13;100011.66;;;29.95;34.53
73952;BME280;62304;47.662;18.324;2022-08-01T15:06:17;100013.97;;;29.91;34.84
73952;BME280;62304;47.662;18.324;2022-08-01T15:09:19;100017.53;;;29.81;34.58
73952;BME280;62304;47.662;18.324;2022-08-01T15:12:22;100011.91;;;29.92;34.32
73952;BME280;62304;47.662;18.324;2022-08-01T15:15:48;100015.22;;;29.85;34.59
73952;BME280;62304;47.662;18.324;2022-08-01T15:18:54;100010.37;;;29.60;35.36
73952;BME280;62304;47.662;18.324;2022-08-01T15:21:57;99998.09;;;29.54;35.62
73952;BME280;62304;47.662;18.324;2022-08-01T15:25:03;100004.97;;;29.42;35.40
73952;BME280;62304;47.662;18.324;2022-08-01T15:28:06;100013.03;;;29.43;35.56
73952;BME280;62304;47.662;18.324;2022-08-01T15:31:11;100012.94;;;29.32;35.90
73952;BME280;62304;47.662;18.324;2022-08-01T15:34:15;100009.72;;;29.19;36.46
73952;BME280;62304;47.662;18.324;2022-08-01T15:37:18;100016.66;;;29.13;36.73
73952;BME280;62304;47.662;18.324;2022-08-01T15:40:21;100015.91;;;28.92;36.63
73952;BME280;62304;47.662;18.324;2022-08-01T15:43:24;100008.34;;;28.89;36.82
73952;BME280;62304;47.662;18.324;2022-08-01T15:46:29;100011.00;;;28.93;36.69
73952;BME280;62304;47.662;18.324;2022-08-01T15:49:32;100019.16;;;28.80;37.13
73952;BME280;62304;47.662;18.324;2022-08-01T15:52:39;100017.31;;;28.77;37.28
73952;BME280;62304;47.662;18.324;2022-08-01T15:55:42;100020.66;;;28.75;37.22
73952;BME280;62304;47.662;18.324;2022-08-01T15:58:53;100021.56;;;28.87;36.96
73952;BME280;62304;47.662;18.324;2022-08-01T16:01:58;100018.69;;;28.87;37.01
73952;BME280;62304;47.662;18.324;2022-08-01T16:05:01;100021.69;;;28.98;36.84
73952;BME280;62304;47.662;18.324;2022-08-01T16:08:04;100008.59;;;29.11;36.88
73952;BME280;62304;47.662;18.324;2022-08-01T16:11:07;100015.66;;;29.16;36.45
73952;BME280;62304;47.662;18.324;2022-08-01T16:14:10;100015.28;;;29.28;36.02
73952;BME280;62304;47.662;18.324;2022-08-01T16:17:13;100018.50;;;29.41;35.84
73952;BME280;62304;47.662;18.324;2022-08-01T16:20:17;100011.47;;;29.42;36.05
73952;BME280;62304;47.662;18.324;2022-08-01T16:23:20;100014.16;;;29.51;35.93